Relevés horaires Semmerzake (Belgique)


Relevés horaires à Semmerzake - Samedi 12 Juin 2021
Heure UTC1 Température [°C] Vent [km/h] Hum. [%] Pres.4 [hPa] Visi. [Km] Nébu. [octa] Préc.5 [mm] Cond.
2m. Res. Ros. Dir.2 Vit. Moy. Raf.3
23:00 13.0 13.0 9.4 NNO 1.9 -- 3.7 79 1027(1.2/3h) 19 -- -- --
22:00 13.6 13.6 9.9 NNO 1.9 -- 7.4 78 1026.9(1.5/3h) 19 -- -- --
21:00 14.2 14.2 10.1 NNE 3.7 -- 11.1 76 1026.5(1.7/3h) 20 -- -- --
20:00 15.5 15.5 10.7 N 3.7 -- 9.3 73 1025.9(1.5/3h) 17 -- -- --
19:00 17.6 17.6 10.4 N 5.6 -- 11.1 63 1025.2(1.1/3h) 20 -- -- --
18:00 19.2 19.2 9.7 N 5.6 -- 16.7 54 1024.7(0.9/3h) 20 -- 0.1/12h
--
17:00 20.2 20.2 9.4 N 5.6 -- 16.7 50 1024.2(0.8/3h) 20 -- -- --
16:00 20.5 20.5 10.4 NNO 7.4 -- 13.0 52 1024(1.1/3h) 20 -- -- --
15:00 19.9 19.9 10.8 N 7.4 -- 14.8 56 1023.7(1.1/3h) 18 -- -- --
14:00 20.3 20.3 11.5 N 7.4 -- 13.0 57 1023.3(0.9/3h) 18 -- -- --
13:00 21.0 21.0 12.7 NNO 7.4 -- 14.8 59 1023(0.6/3h) 19 -- -- --
12:00 21.0 21.0 12.4 NO 7.4 -- 13.0 58 1022.5(0.5/3h) 16 -- 0.1/6h
NA
11:00 19.6 19.6 13.3 ONO 5.6 -- 13.0 67 1022.3(0.6/3h) 20 -- -- --
10:00 19.0 19.0 14.5 O 3.7 -- 9.3 75 1022.2(0.6/3h) 12 -- -- --
09:00 17.3 17.3 14.7 O 3.7 -- 9.3 85 1022(0.9/3h) 9 -- -- NA
08:00 16.0 16.0 14.6 OSO 3.7 -- 7.4 91 1021.8(1.1/3h) 7 -- -- NA
07:00 15.3 15.3 14.2 OSO 3.7 -- 9.3 93 1021.7(1.3/3h) 5 -- -- Il y a une bruine modérée et intermittente à la station au moment de l'observation
06:00 15.5 15.5 14.1 SO 3.7 -- 9.3 91 1021.2(0.5/3h) 8 -- -- --
05:00 15.1 15.1 14.0 SO 3.7 -- 7.4 93 1020.7(0.2/3h) 6 -- -- --
04:00 14.6 14.6 13.7 SO 3.7 -- 9.3 94 1020.2(0.0/3h) 5 -- -- --
03:00 14.6 14.6 13.5 SO 3.7 -- 7.4 93 1020.6(0.1/3h) 6 -- -- --
02:00 14.1 14.1 13.2 OSO 3.7 -- 7.4 94 1020.3(-0.2/3h) 9 -- -- --
01:00 14.2 14.2 13.1 SO 5.6 -- 7.4 93 1020.2(-0.3/3h) 15 -- -- --
00:00 15.1 15.1 13.4 SO 3.7 -- 11.1 90 1020.3(0.2/3h) 19 -- -- --

1 Coordinated Universal Time. Actuellement il est 08:00 locale et 06:00 UTC.

2 Le vent souffle depuis la direction indiquée vers la direction oposée.

3 Les rafales max. sont disponible 40 min après l'heure du relevé.

4 Pour les stations d'altitude (plus de 600m) le géopotentiel du niveau le plus proche de la pression obligatoire est indiqué.

5 Les stations disposant d'un diffuseur peuvent indiquer "trace". Cela signifie que des précipitations ont touchés le sol mais que la quantité est inférieure à 0.1 mm.

Récapitulatif de la journée
Température [°C] Vent [km/h] Ensoleillement4 [h] Precipitations totale5 [mm] Pression [Hpa]
Min1 Max.2 Moy.3 Max. Min Max.
13.8 22.5 0 16.7 0 h 0 min 0 1020.2 1027.0

1 Température minimale relevée entre 18:00 UTC la veille et 18:00 UTC le jour donné.

2 Température maximale relevée entre 06:00 UTC le jour donné et 06:00 UTC le lendemain.

3 Vent moyen de la journée basé sur les relevés horaires.

4 Ensoleillement en heures relevé entre 06:00 UTC la veille et 06:00 UTC le jour donné.

5 Précipitations totales tombées entre 06:00 UTC la jour donné et 06:00 UTC le lendemain.

Graphiques horaires